Mostly Cloudy Current Weather (METAR) For London Heathrow Airport

All times on the weather descriptions are local

Observed at 03:20 - (27 mins ago)

Mostly Cloudy

15°C

Mostly Cloudy
Clouds: Broken Clouds at 1,500ft, Broken Clouds at 4,500ft, Broken Clouds at 1,400ft
Wind: 190° at 08 knots
Visibility: Greater than 10km
QNH: 1014
Dew Point: 14°C
Runway in Use: Landing: Runway , Take-Off: Runway

Sunrise Today: 06:54
Sunset Today: 16:36

Forecast Weather (TAF) For London Heathrow Airport

Issued at 00:00 - (29 days ago)


Runway in Use: Likely Runways 27L/R

Forecast valid until 00:00 on Sunday

METAR/TAF RAW METAR / TAF

EGLL 010320Z 19008KT 9999 BKN015 BKN045 15/14 Q1014 TEMPO BKN014

Weather Widget

Put weather from any of our airports on your website with our weather widget.

Find Another Search

Airport Search


Please Wait Please Wait - Loading
Close
Close

Login

Username:

Password:

Remember Me:

Remember me on this computer

Forgotten your password? Get a reset password sent to your registered e-mail address

Close

User Private Message

Subject:

Message: